sensor_id;sensor_type;location;lat;lon;timestamp;P1;durP1;ratioP1;P2;durP2;ratioP2
20397;SDS011;10358;49.590;11.030;2023-04-19T00:00:29;15.77;;;9.50;;
20397;SDS011;10358;49.590;11.030;2023-04-19T00:02:55;14.17;;;9.60;;
20397;SDS011;10358;49.590;11.030;2023-04-19T00:05:21;13.87;;;9.83;;
20397;SDS011;10358;49.590;11.030;2023-04-19T00:07:48;16.50;;;9.57;;
20397;SDS011;10358;49.590;11.030;2023-04-19T00:10:14;16.03;;;10.10;;
20397;SDS011;10358;49.590;11.030;2023-04-19T00:12:40;13.20;;;8.67;;
20397;SDS011;10358;49.590;11.030;2023-04-19T00:15:05;17.10;;;10.03;;
20397;SDS011;10358;49.590;11.030;2023-04-19T00:17:32;14.43;;;9.70;;
20397;SDS011;10358;49.590;11.030;2023-04-19T00:19:58;12.37;;;9.07;;
20397;SDS011;10358;49.590;11.030;2023-04-19T00:22:24;13.40;;;8.83;;
20397;SDS011;10358;49.590;11.030;2023-04-19T00:24:50;13.17;;;8.83;;
20397;SDS011;10358;49.590;11.030;2023-04-19T00:27:16;14.60;;;9.00;;
20397;SDS011;10358;49.590;11.030;2023-04-19T00:29:42;14.17;;;9.00;;
20397;SDS011;10358;49.590;11.030;2023-04-19T00:32:08;16.87;;;9.40;;
20397;SDS011;10358;49.590;11.030;2023-04-19T00:34:33;14.03;;;9.27;;
20397;SDS011;10358;49.590;11.030;2023-04-19T00:36:59;15.47;;;9.20;;
20397;SDS011;10358;49.590;11.030;2023-04-19T00:39:25;14.60;;;8.67;;
20397;SDS011;10358;49.590;11.030;2023-04-19T00:41:50;13.87;;;9.40;;
20397;SDS011;10358;49.590;11.030;2023-04-19T00:44:17;13.53;;;8.67;;
20397;SDS011;10358;49.590;11.030;2023-04-19T00:46:43;14.27;;;8.87;;
20397;SDS011;10358;49.590;11.030;2023-04-19T00:49:08;13.20;;;9.03;;
20397;SDS011;10358;49.590;11.030;2023-04-19T00:51:34;15.17;;;9.40;;
20397;SDS011;10358;49.590;11.030;2023-04-19T00:54:01;14.13;;;9.20;;
20397;SDS011;10358;49.590;11.030;2023-04-19T00:56:28;15.20;;;9.10;;
20397;SDS011;10358;49.590;11.030;2023-04-19T00:58:54;14.07;;;8.23;;
20397;SDS011;10358;49.590;11.030;2023-04-19T01:01:20;13.43;;;9.07;;
20397;SDS011;10358;49.590;11.030;2023-04-19T01:03:46;17.17;;;9.40;;
20397;SDS011;10358;49.590;11.030;2023-04-19T01:06:13;15.23;;;9.17;;
20397;SDS011;10358;49.590;11.030;2023-04-19T01:08:38;15.13;;;9.00;;
20397;SDS011;10358;49.590;11.030;2023-04-19T01:11:04;15.30;;;9.50;;
20397;SDS011;10358;49.590;11.030;2023-04-19T01:13:31;14.63;;;9.57;;
20397;SDS011;10358;49.590;11.030;2023-04-19T01:15:57;15.97;;;9.50;;
20397;SDS011;10358;49.590;11.030;2023-04-19T01:18:24;15.67;;;9.73;;
20397;SDS011;10358;49.590;11.030;2023-04-19T01:20:50;15.57;;;9.50;;
20397;SDS011;10358;49.590;11.030;2023-04-19T01:23:16;15.47;;;9.57;;
20397;SDS011;10358;49.590;11.030;2023-04-19T01:25:41;16.80;;;9.87;;
20397;SDS011;10358;49.590;11.030;2023-04-19T01:28:07;16.03;;;9.13;;
20397;SDS011;10358;49.590;11.030;2023-04-19T01:30:33;14.03;;;8.80;;
20397;SDS011;10358;49.590;11.030;2023-04-19T01:33:00;17.27;;;8.97;;
20397;SDS011;10358;49.590;11.030;2023-04-19T01:35:25;16.07;;;9.50;;
20397;SDS011;10358;49.590;11.030;2023-04-19T01:37:51;13.63;;;8.63;;
20397;SDS011;10358;49.590;11.030;2023-04-19T01:40:19;14.27;;;8.10;;
20397;SDS011;10358;49.590;11.030;2023-04-19T01:42:46;15.30;;;8.43;;
20397;SDS011;10358;49.590;11.030;2023-04-19T01:45:12;12.53;;;7.80;;
20397;SDS011;10358;49.590;11.030;2023-04-19T01:47:37;12.97;;;8.43;;
20397;SDS011;10358;49.590;11.030;2023-04-19T01:50:03;11.93;;;7.87;;
20397;SDS011;10358;49.590;11.030;2023-04-19T01:52:29;15.23;;;9.13;;
20397;SDS011;10358;49.590;11.030;2023-04-19T01:54:54;11.33;;;7.57;;
20397;SDS011;10358;49.590;11.030;2023-04-19T01:57:20;15.27;;;8.33;;
20397;SDS011;10358;49.590;11.030;2023-04-19T01:59:45;13.97;;;8.73;;
20397;SDS011;10358;49.590;11.030;2023-04-19T02:02:11;13.23;;;8.43;;
20397;SDS011;10358;49.590;11.030;2023-04-19T02:04:36;12.83;;;8.43;;
20397;SDS011;10358;49.590;11.030;2023-04-19T02:07:02;14.07;;;8.60;;
20397;SDS011;10358;49.590;11.030;2023-04-19T02:09:27;14.03;;;7.73;;
20397;SDS011;10358;49.590;11.030;2023-04-19T02:11:53;15.23;;;7.83;;
20397;SDS011;10358;49.590;11.030;2023-04-19T02:14:18;11.60;;;8.10;;
20397;SDS011;10358;49.590;11.030;2023-04-19T02:16:44;12.10;;;8.23;;
20397;SDS011;10358;49.590;11.030;2023-04-19T02:19:10;15.03;;;8.13;;
20397;SDS011;10358;49.590;11.030;2023-04-19T02:21:35;13.77;;;8.50;;
20397;SDS011;10358;49.590;11.030;2023-04-19T02:24:01;13.97;;;8.40;;
20397;SDS011;10358;49.590;11.030;2023-04-19T02:26:26;13.17;;;7.83;;
20397;SDS011;10358;49.590;11.030;2023-04-19T02:28:52;13.00;;;8.33;;
20397;SDS011;10358;49.590;11.030;2023-04-19T02:31:17;17.53;;;8.53;;
20397;SDS011;10358;49.590;11.030;2023-04-19T02:33:43;12.77;;;8.17;;
20397;SDS011;10358;49.590;11.030;2023-04-19T02:36:10;12.10;;;8.23;;
20397;SDS011;10358;49.590;11.030;2023-04-19T02:38:36;14.53;;;8.30;;
20397;SDS011;10358;49.590;11.030;2023-04-19T02:41:01;11.80;;;8.07;;
20397;SDS011;10358;49.590;11.030;2023-04-19T02:43:30;14.30;;;8.27;;
20397;SDS011;10358;49.590;11.030;2023-04-19T02:45:55;12.90;;;8.67;;
20397;SDS011;10358;49.590;11.030;2023-04-19T02:48:21;17.33;;;9.77;;
20397;SDS011;10358;49.590;11.030;2023-04-19T02:50:46;15.17;;;9.20;;
20397;SDS011;10358;49.590;11.030;2023-04-19T02:53:12;15.20;;;8.77;;
20397;SDS011;10358;49.590;11.030;2023-04-19T02:55:37;17.23;;;8.73;;
20397;SDS011;10358;49.590;11.030;2023-04-19T02:58:03;15.13;;;9.63;;
20397;SDS011;10358;49.590;11.030;2023-04-19T03:00:28;16.50;;;9.10;;
20397;SDS011;10358;49.590;11.030;2023-04-19T03:02:55;13.23;;;8.93;;
20397;SDS011;10358;49.590;11.030;2023-04-19T03:05:21;15.90;;;9.93;;
20397;SDS011;10358;49.590;11.030;2023-04-19T03:07:47;15.37;;;9.77;;
20397;SDS011;10358;49.590;11.030;2023-04-19T03:10:13;16.53;;;9.37;;
20397;SDS011;10358;49.590;11.030;2023-04-19T03:12:39;20.57;;;11.20;;
20397;SDS011;10358;49.590;11.030;2023-04-19T03:15:04;16.63;;;9.53;;
20397;SDS011;10358;49.590;11.030;2023-04-19T03:17:32;22.37;;;11.73;;
20397;SDS011;10358;49.590;11.030;2023-04-19T03:19:57;16.40;;;10.47;;
20397;SDS011;10358;49.590;11.030;2023-04-19T03:22:23;17.27;;;10.03;;
20397;SDS011;10358;49.590;11.030;2023-04-19T03:24:48;16.87;;;10.70;;
20397;SDS011;10358;49.590;11.030;2023-04-19T03:27:14;16.13;;;9.73;;
20397;SDS011;10358;49.590;11.030;2023-04-19T03:29:40;15.83;;;10.20;;
20397;SDS011;10358;49.590;11.030;2023-04-19T03:32:05;17.37;;;9.30;;
20397;SDS011;10358;49.590;11.030;2023-04-19T03:34:31;17.53;;;9.67;;
20397;SDS011;10358;49.590;11.030;2023-04-19T03:36:57;16.50;;;9.90;;
20397;SDS011;10358;49.590;11.030;2023-04-19T03:39:23;14.23;;;8.43;;
20397;SDS011;10358;49.590;11.030;2023-04-19T03:41:48;16.40;;;8.90;;
20397;SDS011;10358;49.590;11.030;2023-04-19T03:44:14;18.13;;;10.90;;
20397;SDS011;10358;49.590;11.030;2023-04-19T03:46:40;17.23;;;9.30;;
20397;SDS011;10358;49.590;11.030;2023-04-19T03:49:06;13.50;;;8.13;;
20397;SDS011;10358;49.590;11.030;2023-04-19T03:51:31;13.40;;;8.83;;
20397;SDS011;10358;49.590;11.030;2023-04-19T03:53:57;14.10;;;8.40;;
20397;SDS011;10358;49.590;11.030;2023-04-19T03:56:22;13.47;;;8.10;;
20397;SDS011;10358;49.590;11.030;2023-04-19T03:58:51;12.83;;;8.60;;
20397;SDS011;10358;49.590;11.030;2023-04-19T04:01:17;13.93;;;8.33;;
20397;SDS011;10358;49.590;11.030;2023-04-19T04:03:43;13.83;;;8.43;;
20397;SDS011;10358;49.590;11.030;2023-04-19T04:06:09;12.83;;;7.90;;
20397;SDS011;10358;49.590;11.030;2023-04-19T04:08:34;15.57;;;7.97;;
20397;SDS011;10358;49.590;11.030;2023-04-19T04:11:00;13.00;;;8.33;;
20397;SDS011;10358;49.590;11.030;2023-04-19T04:13:25;12.73;;;8.40;;
20397;SDS011;10358;49.590;11.030;2023-04-19T04:15:51;13.57;;;8.37;;
20397;SDS011;10358;49.590;11.030;2023-04-19T04:18:16;14.80;;;8.80;;
20397;SDS011;10358;49.590;11.030;2023-04-19T04:20:42;12.93;;;8.60;;
20397;SDS011;10358;49.590;11.030;2023-04-19T04:23:08;16.63;;;8.30;;
20397;SDS011;10358;49.590;11.030;2023-04-19T04:25:34;12.07;;;7.43;;
20397;SDS011;10358;49.590;11.030;2023-04-19T04:28:02;14.47;;;7.87;;
20397;SDS011;10358;49.590;11.030;2023-04-19T04:30:28;14.17;;;7.60;;
20397;SDS011;10358;49.590;11.030;2023-04-19T04:32:54;15.60;;;8.00;;
20397;SDS011;10358;49.590;11.030;2023-04-19T04:35:22;12.13;;;7.60;;
20397;SDS011;10358;49.590;11.030;2023-04-19T04:37:47;15.03;;;8.23;;
20397;SDS011;10358;49.590;11.030;2023-04-19T04:40:13;14.30;;;8.77;;
20397;SDS011;10358;49.590;11.030;2023-04-19T04:42:39;11.57;;;6.43;;
20397;SDS011;10358;49.590;11.030;2023-04-19T04:45:05;12.17;;;7.50;;
20397;SDS011;10358;49.590;11.030;2023-04-19T04:47:32;12.83;;;7.00;;
20397;SDS011;10358;49.590;11.030;2023-04-19T04:49:58;11.73;;;6.73;;
20397;SDS011;10358;49.590;11.030;2023-04-19T04:52:24;13.43;;;7.63;;
20397;SDS011;10358;49.590;11.030;2023-04-19T04:54:49;11.67;;;6.63;;
20397;SDS011;10358;49.590;11.030;2023-04-19T04:57:15;12.90;;;7.20;;
20397;SDS011;10358;49.590;11.030;2023-04-19T04:59:41;12.67;;;6.53;;
20397;SDS011;10358;49.590;11.030;2023-04-19T05:02:06;11.73;;;7.33;;
20397;SDS011;10358;49.590;11.030;2023-04-19T05:04:32;13.60;;;6.63;;
20397;SDS011;10358;49.590;11.030;2023-04-19T05:06:57;12.97;;;7.43;;
20397;SDS011;10358;49.590;11.030;2023-04-19T05:09:23;13.27;;;7.13;;
20397;SDS011;10358;49.590;11.030;2023-04-19T05:11:48;10.80;;;7.00;;
20397;SDS011;10358;49.590;11.030;2023-04-19T05:14:14;10.87;;;6.47;;
20397;SDS011;10358;49.590;11.030;2023-04-19T05:16:39;12.47;;;7.10;;
20397;SDS011;10358;49.590;11.030;2023-04-19T05:19:05;10.77;;;6.83;;
20397;SDS011;10358;49.590;11.030;2023-04-19T05:21:32;11.30;;;7.17;;
20397;SDS011;10358;49.590;11.030;2023-04-19T05:23:58;11.70;;;7.70;;
20397;SDS011;10358;49.590;11.030;2023-04-19T05:26:24;11.77;;;7.00;;
20397;SDS011;10358;49.590;11.030;2023-04-19T05:28:49;12.17;;;8.13;;
20397;SDS011;10358;49.590;11.030;2023-04-19T05:31:15;13.23;;;8.37;;
20397;SDS011;10358;49.590;11.030;2023-04-19T05:33:40;14.90;;;8.53;;
20397;SDS011;10358;49.590;11.030;2023-04-19T05:36:06;12.80;;;7.97;;
20397;SDS011;10358;49.590;11.030;2023-04-19T05:38:32;16.00;;;8.60;;
20397;SDS011;10358;49.590;11.030;2023-04-19T05:40:57;45.17;;;20.93;;
20397;SDS011;10358;49.590;11.030;2023-04-19T05:43:23;29.97;;;16.17;;
20397;SDS011;10358;49.590;11.030;2023-04-19T05:45:49;44.93;;;19.80;;
20397;SDS011;10358;49.590;11.030;2023-04-19T05:48:14;37.20;;;17.90;;
20397;SDS011;10358;49.590;11.030;2023-04-19T05:50:40;36.73;;;18.97;;
20397;SDS011;10358;49.590;11.030;2023-04-19T05:53:06;27.80;;;14.70;;
20397;SDS011;10358;49.590;11.030;2023-04-19T05:55:31;23.30;;;12.57;;
20397;SDS011;10358;49.590;11.030;2023-04-19T05:57:57;21.23;;;11.93;;
20397;SDS011;10358;49.590;11.030;2023-04-19T06:00:23;20.50;;;11.73;;
20397;SDS011;10358;49.590;11.030;2023-04-19T06:02:48;20.93;;;11.43;;
20397;SDS011;10358;49.590;11.030;2023-04-19T06:05:14;21.77;;;12.50;;
20397;SDS011;10358;49.590;11.030;2023-04-19T06:07:40;23.97;;;12.00;;
20397;SDS011;10358;49.590;11.030;2023-04-19T06:10:06;34.60;;;12.17;;
20397;SDS011;10358;49.590;11.030;2023-04-19T06:12:32;29.47;;;12.57;;
20397;SDS011;10358;49.590;11.030;2023-04-19T06:14:57;23.30;;;12.07;;
20397;SDS011;10358;49.590;11.030;2023-04-19T06:17:23;22.83;;;11.70;;
20397;SDS011;10358;49.590;11.030;2023-04-19T06:19:52;17.63;;;10.63;;
20397;SDS011;10358;49.590;11.030;2023-04-19T06:22:19;20.73;;;11.60;;
20397;SDS011;10358;49.590;11.030;2023-04-19T06:24:45;19.10;;;11.30;;
20397;SDS011;10358;49.590;11.030;2023-04-19T06:27:11;22.07;;;12.43;;
20397;SDS011;10358;49.590;11.030;2023-04-19T06:29:37;25.07;;;12.43;;
20397;SDS011;10358;49.590;11.030;2023-04-19T06:32:03;24.90;;;13.27;;
20397;SDS011;10358;49.590;11.030;2023-04-19T06:34:28;23.40;;;13.93;;
20397;SDS011;10358;49.590;11.030;2023-04-19T06:36:54;27.40;;;14.30;;
20397;SDS011;10358;49.590;11.030;2023-04-19T06:39:19;26.13;;;14.80;;
20397;SDS011;10358;49.590;11.030;2023-04-19T06:41:45;26.87;;;14.87;;
20397;SDS011;10358;49.590;11.030;2023-04-19T06:44:11;28.13;;;16.60;;
20397;SDS011;10358;49.590;11.030;2023-04-19T06:46:37;26.67;;;15.73;;
20397;SDS011;10358;49.590;11.030;2023-04-19T06:49:03;29.10;;;16.73;;
20397;SDS011;10358;49.590;11.030;2023-04-19T06:51:28;29.27;;;17.37;;
20397;SDS011;10358;49.590;11.030;2023-04-19T06:53:54;33.60;;;18.47;;
20397;SDS011;10358;49.590;11.030;2023-04-19T06:56:37;31.53;;;18.03;;
20397;SDS011;10358;49.590;11.030;2023-04-19T06:59:09;31.63;;;18.27;;
20397;SDS011;10358;49.590;11.030;2023-04-19T07:01:35;34.50;;;18.47;;
20397;SDS011;10358;49.590;11.030;2023-04-19T07:04:00;39.63;;;19.20;;
20397;SDS011;10358;49.590;11.030;2023-04-19T07:06:26;34.97;;;18.70;;
20397;SDS011;10358;49.590;11.030;2023-04-19T07:08:51;34.70;;;19.17;;
20397;SDS011;10358;49.590;11.030;2023-04-19T07:11:17;33.80;;;18.17;;
20397;SDS011;10358;49.590;11.030;2023-04-19T07:13:43;30.90;;;18.00;;
20397;SDS011;10358;49.590;11.030;2023-04-19T07:16:08;29.43;;;17.70;;
20397;SDS011;10358;49.590;11.030;2023-04-19T07:18:34;30.43;;;17.87;;
20397;SDS011;10358;49.590;11.030;2023-04-19T07:21:00;32.97;;;18.10;;
20397;SDS011;10358;49.590;11.030;2023-04-19T07:23:25;32.50;;;18.30;;
20397;SDS011;10358;49.590;11.030;2023-04-19T07:25:51;36.80;;;19.70;;
20397;SDS011;10358;49.590;11.030;2023-04-19T07:28:16;32.00;;;18.20;;
20397;SDS011;10358;49.590;11.030;2023-04-19T07:30:42;30.40;;;17.93;;
20397;SDS011;10358;49.590;11.030;2023-04-19T07:33:10;27.00;;;17.27;;
20397;SDS011;10358;49.590;11.030;2023-04-19T07:35:37;35.87;;;18.90;;
20397;SDS011;10358;49.590;11.030;2023-04-19T07:38:03;35.53;;;19.77;;
20397;SDS011;10358;49.590;11.030;2023-04-19T07:40:29;35.37;;;19.43;;
20397;SDS011;10358;49.590;11.030;2023-04-19T07:42:54;34.83;;;19.47;;
20397;SDS011;10358;49.590;11.030;2023-04-19T07:45:20;32.10;;;19.47;;
20397;SDS011;10358;49.590;11.030;2023-04-19T07:47:46;35.83;;;19.57;;
20397;SDS011;10358;49.590;11.030;2023-04-19T07:50:12;37.83;;;19.20;;
20397;SDS011;10358;49.590;11.030;2023-04-19T07:52:37;33.27;;;18.20;;
20397;SDS011;10358;49.590;11.030;2023-04-19T07:55:03;32.63;;;17.90;;
20397;SDS011;10358;49.590;11.030;2023-04-19T07:57:29;32.80;;;17.87;;
20397;SDS011;10358;49.590;11.030;2023-04-19T07:59:55;34.10;;;18.17;;
20397;SDS011;10358;49.590;11.030;2023-04-19T08:02:24;30.83;;;17.83;;
20397;SDS011;10358;49.590;11.030;2023-04-19T08:04:51;29.30;;;17.70;;
20397;SDS011;10358;49.590;11.030;2023-04-19T08:07:17;26.63;;;16.10;;
20397;SDS011;10358;49.590;11.030;2023-04-19T08:09:43;27.30;;;16.83;;
20397;SDS011;10358;49.590;11.030;2023-04-19T08:12:08;30.53;;;16.87;;
20397;SDS011;10358;49.590;11.030;2023-04-19T08:14:34;28.27;;;16.17;;
20397;SDS011;10358;49.590;11.030;2023-04-19T08:16:59;23.23;;;15.90;;
20397;SDS011;10358;49.590;11.030;2023-04-19T08:19:25;23.77;;;14.97;;
20397;SDS011;10358;49.590;11.030;2023-04-19T08:21:50;24.47;;;15.50;;
20397;SDS011;10358;49.590;11.030;2023-04-19T08:24:16;25.17;;;16.23;;
20397;SDS011;10358;49.590;11.030;2023-04-19T08:26:41;23.10;;;14.93;;
20397;SDS011;10358;49.590;11.030;2023-04-19T08:29:07;22.43;;;15.30;;
20397;SDS011;10358;49.590;11.030;2023-04-19T08:31:33;22.20;;;14.97;;
20397;SDS011;10358;49.590;11.030;2023-04-19T08:33:58;24.67;;;15.33;;
20397;SDS011;10358;49.590;11.030;2023-04-19T08:36:24;23.33;;;15.00;;
20397;SDS011;10358;49.590;11.030;2023-04-19T08:38:51;21.00;;;14.17;;
20397;SDS011;10358;49.590;11.030;2023-04-19T08:41:17;21.63;;;14.17;;
20397;SDS011;10358;49.590;11.030;2023-04-19T08:43:43;20.30;;;13.13;;
20397;SDS011;10358;49.590;11.030;2023-04-19T08:46:11;20.80;;;13.03;;
20397;SDS011;10358;49.590;11.030;2023-04-19T08:48:37;20.33;;;12.00;;
20397;SDS011;10358;49.590;11.030;2023-04-19T08:51:04;19.60;;;11.90;;
20397;SDS011;10358;49.590;11.030;2023-04-19T08:53:32;20.27;;;12.93;;
20397;SDS011;10358;49.590;11.030;2023-04-19T08:55:58;18.87;;;10.87;;
20397;SDS011;10358;49.590;11.030;2023-04-19T08:58:25;16.07;;;11.13;;
20397;SDS011;10358;49.590;11.030;2023-04-19T09:00:53;17.33;;;10.77;;
20397;SDS011;10358;49.590;11.030;2023-04-19T09:03:20;16.67;;;9.40;;
20397;SDS011;10358;49.590;11.030;2023-04-19T09:05:45;13.93;;;9.57;;
20397;SDS011;10358;49.590;11.030;2023-04-19T09:08:21;15.10;;;9.13;;
20397;SDS011;10358;49.590;11.030;2023-04-19T09:10:56;14.13;;;9.10;;
20397;SDS011;10358;49.590;11.030;2023-04-19T09:13:26;17.87;;;9.00;;
20397;SDS011;10358;49.590;11.030;2023-04-19T09:15:52;12.83;;;8.30;;
20397;SDS011;10358;49.590;11.030;2023-04-19T09:18:21;12.97;;;8.80;;
20397;SDS011;10358;49.590;11.030;2023-04-19T09:20:49;12.43;;;8.20;;
20397;SDS011;10358;49.590;11.030;2023-04-19T09:23:21;13.57;;;9.07;;
20397;SDS011;10358;49.590;11.030;2023-04-19T09:25:54;13.33;;;8.43;;
20397;SDS011;10358;49.590;11.030;2023-04-19T09:28:22;14.83;;;8.53;;
20397;SDS011;10358;49.590;11.030;2023-04-19T09:30:48;14.40;;;8.50;;
20397;SDS011;10358;49.590;11.030;2023-04-19T09:33:36;14.73;;;9.07;;
20397;SDS011;10358;49.590;11.030;2023-04-19T09:36:03;16.90;;;9.20;;
20397;SDS011;10358;49.590;11.030;2023-04-19T09:38:30;14.87;;;8.37;;
20397;SDS011;10358;49.590;11.030;2023-04-19T09:41:10;15.77;;;8.90;;
20397;SDS011;10358;49.590;11.030;2023-04-19T09:43:35;15.20;;;9.20;;
20397;SDS011;10358;49.590;11.030;2023-04-19T09:46:01;16.40;;;9.07;;
20397;SDS011;10358;49.590;11.030;2023-04-19T09:48:26;18.27;;;9.10;;
20397;SDS011;10358;49.590;11.030;2023-04-19T09:50:59;14.13;;;8.90;;
20397;SDS011;10358;49.590;11.030;2023-04-19T09:53:26;14.93;;;8.70;;
20397;SDS011;10358;49.590;11.030;2023-04-19T09:55:53;17.50;;;8.57;;
20397;SDS011;10358;49.590;11.030;2023-04-19T09:58:19;14.17;;;8.60;;
20397;SDS011;10358;49.590;11.030;2023-04-19T10:00:45;15.83;;;8.87;;
20397;SDS011;10358;49.590;11.030;2023-04-19T10:03:13;16.97;;;9.17;;
20397;SDS011;10358;49.590;11.030;2023-04-19T10:05:40;14.17;;;8.37;;
20397;SDS011;10358;49.590;11.030;2023-04-19T10:08:06;16.13;;;9.37;;
20397;SDS011;10358;49.590;11.030;2023-04-19T10:10:33;15.03;;;8.13;;
20397;SDS011;10358;49.590;11.030;2023-04-19T10:13:00;14.70;;;8.37;;
20397;SDS011;10358;49.590;11.030;2023-04-19T10:15:28;13.73;;;7.70;;
20397;SDS011;10358;49.590;11.030;2023-04-19T10:17:55;12.37;;;7.30;;
20397;SDS011;10358;49.590;11.030;2023-04-19T10:20:26;16.27;;;7.77;;
20397;SDS011;10358;49.590;11.030;2023-04-19T10:22:58;12.63;;;7.27;;
20397;SDS011;10358;49.590;11.030;2023-04-19T10:25:28;15.67;;;8.23;;
20397;SDS011;10358;49.590;11.030;2023-04-19T10:27:54;12.47;;;7.07;;
20397;SDS011;10358;49.590;11.030;2023-04-19T10:30:21;12.70;;;6.83;;
20397;SDS011;10358;49.590;11.030;2023-04-19T10:32:51;11.37;;;6.67;;
20397;SDS011;10358;49.590;11.030;2023-04-19T10:35:21;14.40;;;6.47;;
20397;SDS011;10358;49.590;11.030;2023-04-19T10:43:21;10.60;;;6.00;;
20397;SDS011;10358;49.590;11.030;2023-04-19T10:45:48;11.37;;;6.47;;
20397;SDS011;10358;49.590;11.030;2023-04-19T10:51:01;11.00;;;6.43;;
20397;SDS011;10358;49.590;11.030;2023-04-19T10:56:14;8.83;;;5.47;;
20397;SDS011;10358;49.590;11.030;2023-04-19T11:04:03;9.93;;;5.40;;
20397;SDS011;10358;49.590;11.030;2023-04-19T11:06:33;9.23;;;5.20;;
20397;SDS011;10358;49.590;11.030;2023-04-19T11:08:59;8.70;;;5.20;;
20397;SDS011;10358;49.590;11.030;2023-04-19T11:11:31;7.87;;;5.23;;
20397;SDS011;10358;49.590;11.030;2023-04-19T11:13:59;6.83;;;4.77;;
20397;SDS011;10358;49.590;11.030;2023-04-19T11:16:26;7.87;;;4.50;;
20397;SDS011;10358;49.590;11.030;2023-04-19T11:18:52;8.13;;;4.47;;
20397;SDS011;10358;49.590;11.030;2023-04-19T11:21:18;7.87;;;4.40;;
20397;SDS011;10358;49.590;11.030;2023-04-19T11:23:44;9.40;;;5.10;;
20397;SDS011;10358;49.590;11.030;2023-04-19T11:26:11;8.00;;;4.90;;
20397;SDS011;10358;49.590;11.030;2023-04-19T11:28:37;6.30;;;4.07;;
20397;SDS011;10358;49.590;11.030;2023-04-19T11:31:04;6.73;;;4.27;;
20397;SDS011;10358;49.590;11.030;2023-04-19T11:33:34;14.47;;;4.13;;
20397;SDS011;10358;49.590;11.030;2023-04-19T11:36:00;8.90;;;4.10;;
20397;SDS011;10358;49.590;11.030;2023-04-19T11:38:26;6.63;;;3.93;;
20397;SDS011;10358;49.590;11.030;2023-04-19T11:41:02;6.97;;;3.50;;
20397;SDS011;10358;49.590;11.030;2023-04-19T11:43:35;6.10;;;3.43;;
20397;SDS011;10358;49.590;11.030;2023-04-19T11:46:05;5.30;;;2.77;;
20397;SDS011;10358;49.590;11.030;2023-04-19T11:48:32;5.07;;;2.57;;
20397;SDS011;10358;49.590;11.030;2023-04-19T11:50:59;5.13;;;2.77;;
20397;SDS011;10358;49.590;11.030;2023-04-19T11:53:26;4.53;;;2.30;;
20397;SDS011;10358;49.590;11.030;2023-04-19T11:55:53;4.10;;;2.20;;
20397;SDS011;10358;49.590;11.030;2023-04-19T12:01:07;3.03;;;2.10;;
20397;SDS011;10358;49.590;11.030;2023-04-19T12:03:34;4.63;;;2.17;;
20397;SDS011;10358;49.590;11.030;2023-04-19T12:06:15;4.97;;;2.20;;
20397;SDS011;10358;49.590;11.030;2023-04-19T12:08:43;3.40;;;2.10;;
20397;SDS011;10358;49.590;11.030;2023-04-19T12:11:12;2.93;;;1.90;;
20397;SDS011;10358;49.590;11.030;2023-04-19T12:13:39;3.77;;;2.00;;
20397;SDS011;10358;49.590;11.030;2023-04-19T12:16:05;4.70;;;2.00;;
20397;SDS011;10358;49.590;11.030;2023-04-19T12:21:38;2.57;;;1.80;;
20397;SDS011;10358;49.590;11.030;2023-04-19T12:24:04;2.33;;;1.60;;
20397;SDS011;10358;49.590;11.030;2023-04-19T12:26:30;3.30;;;1.70;;
20397;SDS011;10358;49.590;11.030;2023-04-19T12:28:57;3.63;;;1.50;;
20397;SDS011;10358;49.590;11.030;2023-04-19T12:31:24;3.60;;;1.90;;
20397;SDS011;10358;49.590;11.030;2023-04-19T12:33:50;2.20;;;1.60;;
20397;SDS011;10358;49.590;11.030;2023-04-19T12:36:15;5.60;;;1.70;;
20397;SDS011;10358;49.590;11.030;2023-04-19T12:38:41;4.27;;;1.60;;
20397;SDS011;10358;49.590;11.030;2023-04-19T12:41:07;4.07;;;1.90;;
20397;SDS011;10358;49.590;11.030;2023-04-19T12:43:32;3.87;;;1.97;;
20397;SDS011;10358;49.590;11.030;2023-04-19T12:45:58;2.60;;;1.60;;
20397;SDS011;10358;49.590;11.030;2023-04-19T12:48:24;2.03;;;1.40;;
20397;SDS011;10358;49.590;11.030;2023-04-19T12:50:50;2.22;;;1.75;;
20397;SDS011;10358;49.590;11.030;2023-04-19T12:53:16;2.00;;;1.33;;
20397;SDS011;10358;49.590;11.030;2023-04-19T12:55:42;1.97;;;1.30;;
20397;SDS011;10358;49.590;11.030;2023-04-19T12:58:15;3.23;;;1.77;;
20397;SDS011;10358;49.590;11.030;2023-04-19T13:00:41;6.87;;;1.90;;
20397;SDS011;10358;49.590;11.030;2023-04-19T13:03:07;3.50;;;1.70;;
20397;SDS011;10358;49.590;11.030;2023-04-19T13:05:33;2.15;;;1.60;;
20397;SDS011;10358;49.590;11.030;2023-04-19T13:07:58;4.00;;;1.70;;
20397;SDS011;10358;49.590;11.030;2023-04-19T13:10:24;2.25;;;1.50;;
20397;SDS011;10358;49.590;11.030;2023-04-19T13:12:50;4.93;;;1.50;;
20397;SDS011;10358;49.590;11.030;2023-04-19T13:15:15;2.05;;;1.48;;
20397;SDS011;10358;49.590;11.030;2023-04-19T13:17:41;3.15;;;1.70;;
20397;SDS011;10358;49.590;11.030;2023-04-19T13:20:07;3.17;;;1.70;;
20397;SDS011;10358;49.590;11.030;2023-04-19T13:22:33;4.22;;;1.80;;
20397;SDS011;10358;49.590;11.030;2023-04-19T13:24:59;3.28;;;1.73;;
20397;SDS011;10358;49.590;11.030;2023-04-19T13:27:25;3.60;;;1.80;;
20397;SDS011;10358;49.590;11.030;2023-04-19T13:29:50;4.27;;;2.07;;
20397;SDS011;10358;49.590;11.030;2023-04-19T13:32:20;4.70;;;2.20;;
20397;SDS011;10358;49.590;11.030;2023-04-19T13:34:46;5.95;;;2.03;;
20397;SDS011;10358;49.590;11.030;2023-04-19T13:37:11;2.80;;;1.90;;
20397;SDS011;10358;49.590;11.030;2023-04-19T13:39:37;3.53;;;2.00;;
20397;SDS011;10358;49.590;11.030;2023-04-19T13:42:03;4.43;;;1.88;;
20397;SDS011;10358;49.590;11.030;2023-04-19T13:44:29;4.63;;;1.95;;
20397;SDS011;10358;49.590;11.030;2023-04-19T13:46:55;4.95;;;2.10;;
20397;SDS011;10358;49.590;11.030;2023-04-19T13:49:20;5.88;;;2.33;;
20397;SDS011;10358;49.590;11.030;2023-04-19T13:51:46;5.55;;;2.45;;
20397;SDS011;10358;49.590;11.030;2023-04-19T13:54:11;2.70;;;1.95;;
20397;SDS011;10358;49.590;11.030;2023-04-19T13:56:37;4.25;;;2.33;;
20397;SDS011;10358;49.590;11.030;2023-04-19T13:59:02;3.70;;;2.20;;
20397;SDS011;10358;49.590;11.030;2023-04-19T14:01:28;3.13;;;2.13;;
20397;SDS011;10358;49.590;11.030;2023-04-19T14:03:53;3.28;;;2.05;;
20397;SDS011;10358;49.590;11.030;2023-04-19T14:06:19;5.85;;;2.25;;
20397;SDS011;10358;49.590;11.030;2023-04-19T14:08:44;4.38;;;2.40;;
20397;SDS011;10358;49.590;11.030;2023-04-19T14:11:10;4.88;;;2.13;;
20397;SDS011;10358;49.590;11.030;2023-04-19T14:13:36;3.95;;;2.22;;
20397;SDS011;10358;49.590;11.030;2023-04-19T14:16:01;5.22;;;2.30;;
20397;SDS011;10358;49.590;11.030;2023-04-19T14:18:27;5.05;;;2.20;;
20397;SDS011;10358;49.590;11.030;2023-04-19T14:20:53;3.63;;;2.25;;
20397;SDS011;10358;49.590;11.030;2023-04-19T14:23:19;4.90;;;2.08;;
20397;SDS011;10358;49.590;11.030;2023-04-19T14:25:45;3.75;;;2.40;;
20397;SDS011;10358;49.590;11.030;2023-04-19T14:28:10;5.13;;;2.13;;
20397;SDS011;10358;49.590;11.030;2023-04-19T14:30:36;3.60;;;2.00;;
20397;SDS011;10358;49.590;11.030;2023-04-19T14:33:02;6.30;;;2.05;;
20397;SDS011;10358;49.590;11.030;2023-04-19T14:35:29;4.30;;;2.10;;
20397;SDS011;10358;49.590;11.030;2023-04-19T14:37:55;4.43;;;2.33;;